Time,TemperatureF,DewpointF,PressureIn,WindDirection,WindDirectionDegrees,WindSpeedMPH,WindSpeedGustMPH,Humidity,HourlyPrecipIn,Conditions,Clouds,dailyrainin,SolarRadiationWatts/m^2,SoftwareType,DateUTC
2013-07-31 00:00:00,68.0,43.0,-100.00,NW,312,1.0,11.0,41,0.00,,,0.00,0.000000,,2013-07-31 07:00:00,
2013-07-31 00:32:00,68.0,43.0,-100.00,NW,312,1.0,11.0,41,0.00,,,0.00,0.000000,,2013-07-31 07:32:00,
2013-07-31 00:43:00,68.0,43.0,-100.00,NW,312,1.0,11.0,41,0.00,,,0.00,0.000000,,2013-07-31 07:43:00,
2013-07-31 00:52:00,68.0,43.0,-100.00,NW,312,1.0,11.0,41,0.00,,,0.00,0.000000,,2013-07-31 07:52:00,
2013-07-31 01:33:00,65.0,43.0,-100.00,NNW,330,0.0,8.0,44,0.00,,,0.00,0.000000,,2013-07-31 08:33:00,
2013-07-31 01:42:00,65.0,43.0,-100.00,NNW,330,0.0,8.0,44,0.00,,,0.00,0.000000,,2013-07-31 08:42:00,
2013-07-31 01:53:00,65.0,43.0,-100.00,NNW,330,0.0,8.0,44,0.00,,,0.00,0.000000,,2013-07-31 08:53:00,
2013-07-31 02:00:00,65.0,43.0,-100.00,West,267,3.0,5.0,44,0.00,,,0.00,0.000000,,2013-07-31 09:00:00,
2013-07-31 02:32:00,65.0,43.0,-100.00,West,267,3.0,5.0,44,0.00,,,0.00,0.000000,,2013-07-31 09:32:00,
2013-07-31 02:44:00,65.0,43.0,-100.00,West,267,3.0,5.0,44,0.00,,,0.00,0.000000,,2013-07-31 09:44:00,
2013-07-31 02:52:00,65.0,43.0,-100.00,West,267,3.0,5.0,44,0.00,,,0.00,0.000000,,2013-07-31 09:52:00,
2013-07-31 03:00:00,65.0,44.0,-100.00,NW,314,1.0,6.0,46,0.00,,,0.00,0.000000,,2013-07-31 10:00:00,
2013-07-31 03:22:00,65.0,44.0,-100.00,NW,314,1.0,6.0,46,0.00,,,0.00,0.000000,,2013-07-31 10:22:00,
2013-07-31 03:32:00,65.0,44.0,-100.00,NW,314,1.0,6.0,46,0.00,,,0.00,0.000000,,2013-07-31 10:32:00,
2013-07-31 03:44:00,65.0,44.0,-100.00,NW,314,1.0,6.0,46,0.00,,,0.00,0.000000,,2013-07-31 10:44:00,
2013-07-31 03:52:00,65.0,44.0,-100.00,NW,314,1.0,6.0,46,0.00,,,0.00,0.000000,,2013-07-31 10:52:00,
2013-07-31 04:33:00,64.0,44.0,-100.00,NNW,334,0.0,4.0,48,0.00,,,0.00,0.000000,,2013-07-31 11:33:00,
2013-07-31 04:43:00,64.0,44.0,-100.00,NNW,334,0.0,4.0,48,0.00,,,0.00,0.000000,,2013-07-31 11:43:00,
2013-07-31 04:53:00,64.0,44.0,-100.00,NNW,334,0.0,4.0,48,0.00,,,0.00,0.000000,,2013-07-31 11:53:00,
2013-07-31 05:22:00,61.0,42.0,-100.00,NE,37,1.0,3.0,49,0.00,,,0.00,0.000000,,2013-07-31 12:22:00,
2013-07-31 05:33:00,61.0,42.0,-100.00,NE,37,1.0,3.0,49,0.00,,,0.00,0.000000,,2013-07-31 12:33:00,
2013-07-31 05:43:00,61.0,42.0,-100.00,NE,37,1.0,3.0,49,0.00,,,0.00,0.000000,,2013-07-31 12:43:00,
2013-07-31 05:52:00,61.0,42.0,-100.00,NE,37,1.0,3.0,49,0.00,,,0.00,0.000000,,2013-07-31 12:52:00,
2013-07-31 06:33:00,60.0,39.0,-100.00,West,272,0.0,5.0,46,-99.99,,,0.00,0.000000,,2013-07-31 13:33:00,
2013-07-31 06:43:00,60.0,39.0,-100.00,West,272,0.0,5.0,46,-99.99,,,0.00,0.000000,,2013-07-31 13:43:00,
2013-07-31 06:53:00,60.0,39.0,-100.00,West,272,0.0,5.0,46,-99.99,,,0.00,0.000000,,2013-07-31 13:53:00,
2013-07-31 07:34:00,62.0,36.0,-100.00,NNE,30,1.0,4.0,38,-99.99,,,0.00,0.000000,,2013-07-31 14:34:00,
2013-07-31 07:43:00,62.0,36.0,-100.00,NNE,30,1.0,4.0,38,-99.99,,,0.00,0.000000,,2013-07-31 14:43:00,
2013-07-31 07:53:00,62.0,36.0,-100.00,NNE,30,1.0,4.0,38,-99.99,,,0.00,0.000000,,2013-07-31 14:53:00,
2013-07-31 08:00:00,65.0,26.0,-100.00,NNE,27,1.0,3.0,23,0.00,,,-99.99,22.000000,,2013-07-31 15:00:00,
2013-07-31 09:00:00,76.0,34.0,-100.00,NNE,28,2.0,4.0,22,-99.99,,,0.00,262.000000,,2013-07-31 16:00:00,
2013-07-31 09:33:00,76.0,34.0,-100.00,NNE,28,2.0,4.0,22,-99.99,,,0.00,262.000000,,2013-07-31 16:33:00,
2013-07-31 09:44:00,76.0,34.0,-100.00,NNE,28,2.0,4.0,22,-99.99,,,0.00,262.000000,,2013-07-31 16:44:00,
2013-07-31 09:52:00,76.0,34.0,-100.00,NNE,28,2.0,4.0,22,-99.99,,,0.00,262.000000,,2013-07-31 16:52:00,
2013-07-31 10:00:00,80.0,30.0,-100.00,NNE,30,3.0,5.0,16,0.00,,,0.00,526.000000,,2013-07-31 17:00:00,
2013-07-31 10:33:00,80.0,30.0,-100.00,NNE,30,3.0,5.0,16,0.00,,,0.00,526.000000,,2013-07-31 17:33:00,
2013-07-31 10:43:00,80.0,30.0,-100.00,NNE,30,3.0,5.0,16,0.00,,,0.00,526.000000,,2013-07-31 17:43:00,
2013-07-31 10:53:00,80.0,30.0,-100.00,NNE,30,3.0,5.0,16,0.00,,,0.00,526.000000,,2013-07-31 17:53:00,
2013-07-31 11:23:00,86.0,36.0,-100.00,ESE,120,3.0,8.0,17,0.00,,,0.00,731.000000,,2013-07-31 18:23:00,
2013-07-31 11:33:00,86.0,36.0,-100.00,ESE,120,3.0,8.0,17,0.00,,,0.00,731.000000,,2013-07-31 18:33:00,
2013-07-31 11:43:00,86.0,36.0,-100.00,ESE,120,3.0,8.0,17,0.00,,,0.00,731.000000,,2013-07-31 18:43:00,
2013-07-31 11:52:00,86.0,36.0,-100.00,ESE,120,3.0,8.0,17,0.00,,,0.00,731.000000,,2013-07-31 18:52:00,
2013-07-31 12:00:00,87.0,37.0,-100.00,North,358,4.0,13.0,17,0.00,,,0.00,900.000000,,2013-07-31 19:00:00,
2013-07-31 12:33:00,87.0,37.0,-100.00,North,358,4.0,13.0,17,0.00,,,0.00,900.000000,,2013-07-31 19:33:00,
2013-07-31 12:43:00,87.0,37.0,-100.00,North,358,4.0,13.0,17,0.00,,,0.00,900.000000,,2013-07-31 19:43:00,
2013-07-31 12:53:00,87.0,37.0,-100.00,North,358,4.0,13.0,17,0.00,,,0.00,900.000000,,2013-07-31 19:53:00,
2013-07-31 13:00:00,87.0,24.0,-100.00,SSE,156,7.0,14.0,10,0.00,,,0.00,1025.000000,,2013-07-31 20:00:00,
2013-07-31 13:32:00,87.0,24.0,-100.00,SSE,156,7.0,14.0,10,0.00,,,0.00,1025.000000,,2013-07-31 20:32:00,
2013-07-31 13:43:00,87.0,24.0,-100.00,SSE,156,7.0,14.0,10,0.00,,,0.00,1025.000000,,2013-07-31 20:43:00,
2013-07-31 13:53:00,87.0,24.0,-100.00,SSE,156,7.0,14.0,10,0.00,,,0.00,1025.000000,,2013-07-31 20:53:00,
2013-07-31 14:00:00,88.0,9.0,-100.00,SSE,155,6.0,18.0,5,0.00,,,0.00,1091.000000,,2013-07-31 21:00:00,
2013-07-31 14:32:00,88.0,9.0,-100.00,SSE,155,6.0,18.0,5,0.00,,,0.00,1091.000000,,2013-07-31 21:32:00,
2013-07-31 14:43:00,88.0,9.0,-100.00,SSE,155,6.0,18.0,5,0.00,,,0.00,1091.000000,,2013-07-31 21:43:00,
2013-07-31 14:53:00,88.0,9.0,-100.00,SSE,155,6.0,18.0,5,0.00,,,0.00,1091.000000,,2013-07-31 21:53:00,
2013-07-31 15:22:00,87.0,16.0,-100.00,South,170,10.0,20.0,7,0.00,,,0.00,1111.000000,,2013-07-31 22:22:00,
2013-07-31 15:33:00,87.0,16.0,-100.00,South,170,10.0,20.0,7,0.00,,,0.00,1111.000000,,2013-07-31 22:33:00,
2013-07-31 15:43:00,87.0,16.0,-100.00,South,170,10.0,20.0,7,0.00,,,0.00,1111.000000,,2013-07-31 22:43:00,
2013-07-31 15:53:00,87.0,16.0,-100.00,South,170,10.0,20.0,7,0.00,,,0.00,1111.000000,,2013-07-31 22:53:00,
2013-07-31 16:00:00,87.0,12.0,-100.00,SSE,160,4.0,20.0,6,0.00,,,0.00,1052.000000,,2013-07-31 23:00:00,
2013-07-31 16:32:00,87.0,12.0,-100.00,SSE,160,4.0,20.0,6,0.00,,,0.00,1052.000000,,2013-07-31 23:32:00,
2013-07-31 16:42:00,87.0,12.0,-100.00,SSE,160,4.0,20.0,6,0.00,,,0.00,1052.000000,,2013-07-31 23:42:00,
2013-07-31 16:52:00,87.0,12.0,-100.00,SSE,160,4.0,20.0,6,0.00,,,0.00,1052.000000,,2013-07-31 23:52:00,
2013-07-31 17:00:00,91.0,15.0,-100.00,South,173,7.0,19.0,6,0.00,,,0.00,927.000000,,2013-08-01 00:00:00,
2013-07-31 17:32:00,91.0,15.0,-100.00,South,173,7.0,19.0,6,0.00,,,0.00,927.000000,,2013-08-01 00:32:00,
2013-07-31 17:43:00,91.0,15.0,-100.00,South,173,7.0,19.0,6,0.00,,,0.00,927.000000,,2013-08-01 00:43:00,
2013-07-31 17:52:00,91.0,15.0,-100.00,South,173,7.0,19.0,6,0.00,,,0.00,927.000000,,2013-08-01 00:52:00,
2013-07-31 18:00:00,87.0,30.0,-100.00,WNW,286,3.0,22.0,13,0.00,,,0.00,747.000000,,2013-08-01 01:00:00,
2013-07-31 18:53:00,87.0,30.0,-100.00,WNW,286,3.0,22.0,13,0.00,,,0.00,747.000000,,2013-08-01 01:53:00,
2013-07-31 20:00:00,80.0,41.0,-100.00,NW,305,5.0,13.0,25,-99.99,,,0.00,111.000000,,2013-08-01 03:00:00,
2013-07-31 20:53:00,80.0,41.0,-100.00,NW,305,5.0,13.0,25,-99.99,,,0.00,111.000000,,2013-08-01 03:53:00,
2013-07-31 21:00:00,71.0,36.0,-100.00,WSW,253,5.0,12.0,28,0.00,,,0.00,18.000000,,2013-08-01 04:00:00,
2013-07-31 21:33:00,71.0,36.0,-100.00,WSW,253,5.0,12.0,28,0.00,,,0.00,18.000000,,2013-08-01 04:33:00,
2013-07-31 21:43:00,71.0,36.0,-100.00,WSW,253,5.0,12.0,28,0.00,,,0.00,18.000000,,2013-08-01 04:43:00,
2013-07-31 21:53:00,71.0,36.0,-100.00,WSW,253,5.0,12.0,28,0.00,,,0.00,18.000000,,2013-08-01 04:53:00,
2013-07-31 22:00:00,68.0,37.0,-100.00,WNW,282,2.0,15.0,32,0.00,,,0.00,0.000000,,2013-08-01 05:00:00,
2013-07-31 22:33:00,68.0,37.0,-100.00,WNW,282,2.0,15.0,32,0.00,,,0.00,0.000000,,2013-08-01 05:33:00,
2013-07-31 22:43:00,68.0,37.0,-100.00,WNW,282,2.0,15.0,32,0.00,,,0.00,0.000000,,2013-08-01 05:43:00,
2013-07-31 22:53:00,68.0,37.0,-100.00,WNW,282,2.0,15.0,32,0.00,,,0.00,0.000000,,2013-08-01 05:53:00,
2013-07-31 23:00:00,67.0,35.0,-100.00,NE,36,3.0,12.0,31,0.00,,,0.00,0.000000,,2013-08-01 06:00:00,
2013-07-31 23:33:00,67.0,35.0,-100.00,NE,36,3.0,12.0,31,0.00,,,0.00,0.000000,,2013-08-01 06:33:00,
2013-07-31 23:43:00,67.0,35.0,-100.00,NE,36,3.0,12.0,31,0.00,,,0.00,0.000000,,2013-08-01 06:43:00,
2013-07-31 23:52:00,67.0,35.0,-100.00,NE,36,3.0,12.0,31,0.00,,,0.00,0.000000,,2013-08-01 06:52:00,